sensor_id;sensor_type;location;lat;lon;timestamp;pressure;altitude;pressure_sealevel;temperature;humidity
61573;BME280;47465;43.094;12.434;2023-10-13T00:01:05;99237.97;;;15.49;100.00
61573;BME280;47465;43.094;12.434;2023-10-13T00:03:32;99235.75;;;15.37;100.00
61573;BME280;47465;43.094;12.434;2023-10-13T00:05:59;99220.91;;;15.28;100.00
61573;BME280;47465;43.094;12.434;2023-10-13T00:08:29;99273.63;;;15.51;100.00
61573;BME280;47465;43.094;12.434;2023-10-13T00:10:55;99321.56;;;15.59;100.00
61573;BME280;47465;43.094;12.434;2023-10-13T00:13:28;99323.81;;;15.71;100.00
61573;BME280;47465;43.094;12.434;2023-10-13T00:15:54;99282.78;;;15.46;100.00
61573;BME280;47465;43.094;12.434;2023-10-13T00:18:25;99254.84;;;15.29;100.00
61573;BME280;47465;43.094;12.434;2023-10-13T00:20:53;99330.09;;;15.70;100.00
61573;BME280;47465;43.094;12.434;2023-10-13T00:23:23;99261.28;;;15.24;100.00
61573;BME280;47465;43.094;12.434;2023-10-13T00:25:53;99261.69;;;15.13;100.00
61573;BME280;47465;43.094;12.434;2023-10-13T00:28:23;99248.13;;;14.94;100.00
61573;BME280;47465;43.094;12.434;2023-10-13T00:30:57;99281.03;;;15.21;100.00
61573;BME280;47465;43.094;12.434;2023-10-13T00:33:26;99245.53;;;15.16;100.00
61573;BME280;47465;43.094;12.434;2023-10-13T00:35:53;99243.34;;;15.02;100.00
61573;BME280;47465;43.094;12.434;2023-10-13T00:38:23;99271.00;;;15.26;100.00
61573;BME280;47465;43.094;12.434;2023-10-13T00:40:50;99323.44;;;15.57;100.00
61573;BME280;47465;43.094;12.434;2023-10-13T00:43:19;99327.91;;;15.56;100.00
61573;BME280;47465;43.094;12.434;2023-10-13T00:46:11;99301.19;;;15.31;100.00
61573;BME280;47465;43.094;12.434;2023-10-13T00:48:41;99309.75;;;15.17;100.00
61573;BME280;47465;43.094;12.434;2023-10-13T00:51:12;99288.44;;;15.14;100.00
61573;BME280;47465;43.094;12.434;2023-10-13T00:53:45;99277.78;;;15.13;100.00
61573;BME280;47465;43.094;12.434;2023-10-13T00:56:14;99276.03;;;15.12;100.00
61573;BME280;47465;43.094;12.434;2023-10-13T00:58:49;99250.97;;;14.89;100.00
61573;BME280;47465;43.094;12.434;2023-10-13T01:01:19;99292.78;;;15.17;100.00
61573;BME280;47465;43.094;12.434;2023-10-13T01:03:48;99236.75;;;14.87;100.00
61573;BME280;47465;43.094;12.434;2023-10-13T01:06:18;99222.81;;;14.79;100.00
61573;BME280;47465;43.094;12.434;2023-10-13T01:08:46;99237.53;;;14.91;100.00
61573;BME280;47465;43.094;12.434;2023-10-13T01:11:18;99231.53;;;14.84;100.00
61573;BME280;47465;43.094;12.434;2023-10-13T01:13:44;99240.44;;;14.85;100.00
61573;BME280;47465;43.094;12.434;2023-10-13T01:16:13;99272.72;;;15.05;100.00
61573;BME280;47465;43.094;12.434;2023-10-13T01:18:40;99234.31;;;14.81;100.00
61573;BME280;47465;43.094;12.434;2023-10-13T01:21:15;99230.94;;;14.76;100.00
61573;BME280;47465;43.094;12.434;2023-10-13T01:23:44;99263.84;;;15.03;100.00
61573;BME280;47465;43.094;12.434;2023-10-13T01:26:11;99251.59;;;14.96;100.00
61573;BME280;47465;43.094;12.434;2023-10-13T01:28:43;99229.88;;;14.80;100.00
61573;BME280;47465;43.094;12.434;2023-10-13T01:31:12;99239.66;;;14.81;100.00
61573;BME280;47465;43.094;12.434;2023-10-13T01:33:50;99233.00;;;14.68;100.00
61573;BME280;47465;43.094;12.434;2023-10-13T01:36:20;99286.84;;;15.09;100.00
61573;BME280;47465;43.094;12.434;2023-10-13T01:38:48;99244.78;;;14.87;100.00
61573;BME280;47465;43.094;12.434;2023-10-13T01:41:14;99276.13;;;15.09;100.00
61573;BME280;47465;43.094;12.434;2023-10-13T01:43:40;99220.91;;;14.81;100.00
61573;BME280;47465;43.094;12.434;2023-10-13T01:46:06;99279.75;;;15.08;100.00
61573;BME280;47465;43.094;12.434;2023-10-13T01:48:34;99223.28;;;14.65;100.00
61573;BME280;47465;43.094;12.434;2023-10-13T01:51:04;99290.81;;;14.98;100.00
61573;BME280;47465;43.094;12.434;2023-10-13T01:53:32;99231.09;;;14.71;100.00
61573;BME280;47465;43.094;12.434;2023-10-13T01:55:59;99292.41;;;15.03;100.00
61573;BME280;47465;43.094;12.434;2023-10-13T01:58:31;99245.66;;;14.64;100.00
61573;BME280;47465;43.094;12.434;2023-10-13T02:00:57;99231.66;;;14.56;100.00
61573;BME280;47465;43.094;12.434;2023-10-13T02:03:25;99228.03;;;14.57;100.00
61573;BME280;47465;43.094;12.434;2023-10-13T02:05:55;99316.06;;;14.91;100.00
61573;BME280;47465;43.094;12.434;2023-10-13T02:08:23;99248.75;;;14.50;100.00
61573;BME280;47465;43.094;12.434;2023-10-13T02:11:25;99288.31;;;14.69;100.00
61573;BME280;47465;43.094;12.434;2023-10-13T02:13:51;99247.25;;;14.43;100.00
61573;BME280;47465;43.094;12.434;2023-10-13T02:16:38;99252.81;;;14.37;100.00
61573;BME280;47465;43.094;12.434;2023-10-13T02:19:05;99263.47;;;14.38;100.00
61573;BME280;47465;43.094;12.434;2023-10-13T02:21:35;99280.19;;;14.45;100.00
61573;BME280;47465;43.094;12.434;2023-10-13T02:24:05;99260.88;;;14.35;100.00
61573;BME280;47465;43.094;12.434;2023-10-13T02:26:40;99252.47;;;14.21;100.00
61573;BME280;47465;43.094;12.434;2023-10-13T02:29:06;99289.19;;;14.43;100.00
61573;BME280;47465;43.094;12.434;2023-10-13T02:31:37;99313.59;;;14.60;100.00
61573;BME280;47465;43.094;12.434;2023-10-13T02:34:03;99319.81;;;14.61;100.00
61573;BME280;47465;43.094;12.434;2023-10-13T02:36:38;99259.63;;;14.21;100.00
61573;BME280;47465;43.094;12.434;2023-10-13T02:39:41;99241.31;;;14.08;100.00
61573;BME280;47465;43.094;12.434;2023-10-13T02:42:08;99288.72;;;14.30;100.00
61573;BME280;47465;43.094;12.434;2023-10-13T02:44:34;99244.88;;;14.07;100.00
61573;BME280;47465;43.094;12.434;2023-10-13T02:47:14;99289.56;;;14.32;100.00
61573;BME280;47465;43.094;12.434;2023-10-13T02:49:50;99296.84;;;14.27;100.00
61573;BME280;47465;43.094;12.434;2023-10-13T02:52:16;99296.91;;;14.25;100.00
61573;BME280;47465;43.094;12.434;2023-10-13T02:54:43;99238.00;;;14.00;100.00
61573;BME280;47465;43.094;12.434;2023-10-13T02:57:12;99273.81;;;14.23;100.00
61573;BME280;47465;43.094;12.434;2023-10-13T02:59:41;99272.22;;;14.17;100.00
61573;BME280;47465;43.094;12.434;2023-10-13T03:03:12;99246.38;;;13.89;100.00
61573;BME280;47465;43.094;12.434;2023-10-13T03:05:42;99241.53;;;13.74;100.00
61573;BME280;47465;43.094;12.434;2023-10-13T03:08:08;99288.75;;;14.03;100.00
61573;BME280;47465;43.094;12.434;2023-10-13T03:10:37;99236.03;;;13.79;100.00
61573;BME280;47465;43.094;12.434;2023-10-13T03:13:10;99235.84;;;13.85;100.00
61573;BME280;47465;43.094;12.434;2023-10-13T03:15:36;99307.50;;;14.28;100.00
61573;BME280;47465;43.094;12.434;2023-10-13T03:18:03;99232.31;;;13.84;100.00
61573;BME280;47465;43.094;12.434;2023-10-13T03:20:32;99217.34;;;13.79;100.00
61573;BME280;47465;43.094;12.434;2023-10-13T03:22:58;99277.22;;;14.01;100.00
61573;BME280;47465;43.094;12.434;2023-10-13T03:25:30;99242.34;;;13.77;100.00
61573;BME280;47465;43.094;12.434;2023-10-13T03:28:09;99224.13;;;13.62;100.00
61573;BME280;47465;43.094;12.434;2023-10-13T03:30:39;99241.53;;;13.74;100.00
61573;BME280;47465;43.094;12.434;2023-10-13T03:33:08;99227.66;;;13.63;100.00
61573;BME280;47465;43.094;12.434;2023-10-13T03:35:44;99226.84;;;13.61;100.00
61573;BME280;47465;43.094;12.434;2023-10-13T03:38:18;99280.78;;;14.00;100.00
61573;BME280;47465;43.094;12.434;2023-10-13T03:40:44;99262.38;;;13.91;100.00
61573;BME280;47465;43.094;12.434;2023-10-13T03:43:14;99303.53;;;14.13;100.00
61573;BME280;47465;43.094;12.434;2023-10-13T03:45:43;99222.47;;;13.58;100.00
61573;BME280;47465;43.094;12.434;2023-10-13T03:48:11;99220.44;;;13.66;100.00
61573;BME280;47465;43.094;12.434;2023-10-13T03:50:56;99216.00;;;13.65;100.00
61573;BME280;47465;43.094;12.434;2023-10-13T03:53:42;99287.28;;;13.93;100.00
61573;BME280;47465;43.094;12.434;2023-10-13T03:56:18;99255.22;;;13.65;100.00
61573;BME280;47465;43.094;12.434;2023-10-13T03:58:53;99227.28;;;13.47;100.00
61573;BME280;47465;43.094;12.434;2023-10-13T04:01:22;99255.44;;;13.57;100.00
61573;BME280;47465;43.094;12.434;2023-10-13T04:04:28;99243.31;;;13.47;100.00
61573;BME280;47465;43.094;12.434;2023-10-13T04:07:28;99257.09;;;13.61;100.00
61573;BME280;47465;43.094;12.434;2023-10-13T04:10:07;99280.97;;;13.67;100.00
61573;BME280;47465;43.094;12.434;2023-10-13T04:13:03;99304.78;;;13.75;100.00
61573;BME280;47465;43.094;12.434;2023-10-13T04:16:07;99238.19;;;13.39;100.00
61573;BME280;47465;43.094;12.434;2023-10-13T04:19:08;99254.38;;;13.34;100.00
61573;BME280;47465;43.094;12.434;2023-10-13T04:21:35;99240.28;;;13.28;100.00
61573;BME280;47465;43.094;12.434;2023-10-13T04:24:28;99272.88;;;13.41;100.00
61573;BME280;47465;43.094;12.434;2023-10-13T04:27:20;99260.88;;;13.24;100.00
61573;BME280;47465;43.094;12.434;2023-10-13T04:30:26;99239.78;;;13.15;100.00
61573;BME280;47465;43.094;12.434;2023-10-13T04:32:54;99246.03;;;13.14;100.00
61573;BME280;47465;43.094;12.434;2023-10-13T04:35:40;99300.25;;;13.49;100.00
61573;BME280;47465;43.094;12.434;2023-10-13T04:38:13;99242.31;;;13.20;100.00
61573;BME280;47465;43.094;12.434;2023-10-13T04:40:58;99236.09;;;13.19;100.00
61573;BME280;47465;43.094;12.434;2023-10-13T04:43:27;99242.47;;;13.15;100.00
61573;BME280;47465;43.094;12.434;2023-10-13T04:46:14;99268.88;;;13.24;100.00
61573;BME280;47465;43.094;12.434;2023-10-13T04:48:51;99253.94;;;13.19;100.00
61573;BME280;47465;43.094;12.434;2023-10-13T04:51:17;99260.16;;;13.19;100.00
61573;BME280;47465;43.094;12.434;2023-10-13T04:54:03;99299.47;;;13.45;100.00
61573;BME280;47465;43.094;12.434;2023-10-13T04:56:36;99247.00;;;13.11;100.00
61573;BME280;47465;43.094;12.434;2023-10-13T04:59:55;99321.53;;;13.52;100.00
61573;BME280;47465;43.094;12.434;2023-10-13T05:02:42;99251.63;;;13.06;100.00
61573;BME280;47465;43.094;12.434;2023-10-13T05:05:45;99249.03;;;13.03;100.00
61573;BME280;47465;43.094;12.434;2023-10-13T05:08:31;99258.75;;;13.06;100.00
61573;BME280;47465;43.094;12.434;2023-10-13T05:11:30;99269.16;;;13.15;100.00
61573;BME280;47465;43.094;12.434;2023-10-13T05:14:19;99278.88;;;13.18;100.00
61573;BME280;47465;43.094;12.434;2023-10-13T05:17:15;99283.31;;;13.19;100.00
61573;BME280;47465;43.094;12.434;2023-10-13T05:20:19;99332.53;;;13.41;100.00
61573;BME280;47465;43.094;12.434;2023-10-13T05:23:19;99264.31;;;12.98;100.00
61573;BME280;47465;43.094;12.434;2023-10-13T05:26:19;99297.75;;;13.11;100.00
61573;BME280;47465;43.094;12.434;2023-10-13T05:29:19;99271.53;;;12.94;100.00
61573;BME280;47465;43.094;12.434;2023-10-13T05:32:23;99336.47;;;13.26;100.00
61573;BME280;47465;43.094;12.434;2023-10-13T05:35:24;99275.28;;;12.87;100.00
61573;BME280;47465;43.094;12.434;2023-10-13T05:38:26;99354.03;;;13.37;100.00
61573;BME280;47465;43.094;12.434;2023-10-13T05:41:26;99347.69;;;13.41;100.00
61573;BME280;47465;43.094;12.434;2023-10-13T05:44:27;99289.19;;;12.99;100.00
61573;BME280;47465;43.094;12.434;2023-10-13T05:47:29;99299.53;;;13.11;100.00
61573;BME280;47465;43.094;12.434;2023-10-13T05:50:37;99341.59;;;13.35;100.00
61573;BME280;47465;43.094;12.434;2023-10-13T05:53:38;99338.84;;;13.39;100.00
61573;BME280;47465;43.094;12.434;2023-10-13T05:56:41;99340.41;;;13.46;100.00
61573;BME280;47465;43.094;12.434;2023-10-13T05:59:43;99318.47;;;13.34;100.00
61573;BME280;47465;43.094;12.434;2023-10-13T06:02:42;99318.31;;;13.41;100.00
61573;BME280;47465;43.094;12.434;2023-10-13T06:05:44;99388.91;;;13.91;100.00
61573;BME280;47465;43.094;12.434;2023-10-13T06:08:48;99329.19;;;13.64;100.00
61573;BME280;47465;43.094;12.434;2023-10-13T06:13:05;99403.94;;;13.95;100.00
61573;BME280;47465;43.094;12.434;2023-10-13T06:16:10;99392.59;;;13.87;100.00
61573;BME280;47465;43.094;12.434;2023-10-13T06:19:12;99387.25;;;13.87;100.00
61573;BME280;47465;43.094;12.434;2023-10-13T06:22:14;99388.84;;;13.94;100.00
61573;BME280;47465;43.094;12.434;2023-10-13T06:25:14;99328.91;;;13.72;100.00
61573;BME280;47465;43.094;12.434;2023-10-13T06:38:38;99342.44;;;14.24;100.00
61573;BME280;47465;43.094;12.434;2023-10-13T06:41:05;99394.75;;;14.61;100.00
61573;BME280;47465;43.094;12.434;2023-10-13T06:43:32;99411.28;;;14.73;100.00
61573;BME280;47465;43.094;12.434;2023-10-13T06:46:00;99334.88;;;14.36;100.00
61573;BME280;47465;43.094;12.434;2023-10-13T06:48:28;99368.66;;;14.67;100.00
61573;BME280;47465;43.094;12.434;2023-10-13T06:50:58;99344.53;;;14.69;100.00
61573;BME280;47465;43.094;12.434;2023-10-13T06:53:30;99358.16;;;14.88;100.00
61573;BME280;47465;43.094;12.434;2023-10-13T06:56:06;99394.59;;;15.17;100.00
61573;BME280;47465;43.094;12.434;2023-10-13T06:58:32;99392.31;;;15.31;100.00
61573;BME280;47465;43.094;12.434;2023-10-13T07:00:58;99384.09;;;15.36;100.00
61573;BME280;47465;43.094;12.434;2023-10-13T07:03:27;99447.63;;;15.82;100.00
61573;BME280;47465;43.094;12.434;2023-10-13T07:05:53;99368.34;;;15.50;100.00
61573;BME280;47465;43.094;12.434;2023-10-13T07:08:19;99378.31;;;15.72;100.00
61573;BME280;47465;43.094;12.434;2023-10-13T07:10:49;99411.25;;;15.99;100.00
61573;BME280;47465;43.094;12.434;2023-10-13T07:13:18;99453.50;;;16.39;100.00
61573;BME280;47465;43.094;12.434;2023-10-13T07:15:45;99394.59;;;16.13;100.00
61573;BME280;47465;43.094;12.434;2023-10-13T07:18:12;99383.56;;;16.20;100.00
61573;BME280;47465;43.094;12.434;2023-10-13T07:20:39;99397.16;;;16.38;100.00
61573;BME280;47465;43.094;12.434;2023-10-13T07:23:09;99386.19;;;16.44;100.00
61573;BME280;47465;43.094;12.434;2023-10-13T07:25:37;99410.91;;;16.74;100.00
61573;BME280;47465;43.094;12.434;2023-10-13T07:28:06;99383.28;;;16.71;100.00
61573;BME280;47465;43.094;12.434;2023-10-13T07:30:36;99395.94;;;16.89;100.00
61573;BME280;47465;43.094;12.434;2023-10-13T07:33:36;99399.19;;;16.97;100.00
61573;BME280;47465;43.094;12.434;2023-10-13T07:36:04;99431.03;;;17.27;100.00
61573;BME280;47465;43.094;12.434;2023-10-13T07:38:41;99380.44;;;17.16;100.00
61573;BME280;47465;43.094;12.434;2023-10-13T07:41:08;99413.97;;;17.49;100.00
61573;BME280;47465;43.094;12.434;2023-10-13T07:43:34;99415.75;;;17.69;100.00
61573;BME280;47465;43.094;12.434;2023-10-13T07:46:02;99405.28;;;17.81;100.00
61573;BME280;47465;43.094;12.434;2023-10-13T07:48:36;99394.97;;;17.91;100.00
61573;BME280;47465;43.094;12.434;2023-10-13T07:51:04;99398.00;;;17.85;100.00
61573;BME280;47465;43.094;12.434;2023-10-13T07:53:32;99383.63;;;17.84;100.00
61573;BME280;47465;43.094;12.434;2023-10-13T07:56:05;99411.94;;;18.12;100.00
61573;BME280;47465;43.094;12.434;2023-10-13T07:58:31;99456.59;;;18.54;100.00
61573;BME280;47465;43.094;12.434;2023-10-13T08:00:58;99376.63;;;17.61;100.00
61573;BME280;47465;43.094;12.434;2023-10-13T08:03:59;99397.78;;;17.30;100.00
61573;BME280;47465;43.094;12.434;2023-10-13T08:07:00;99435.84;;;17.60;100.00
61573;BME280;47465;43.094;12.434;2023-10-13T08:09:37;99436.75;;;18.19;100.00
61573;BME280;47465;43.094;12.434;2023-10-13T08:12:06;99386.97;;;18.27;100.00
61573;BME280;47465;43.094;12.434;2023-10-13T08:14:36;99393.09;;;18.67;100.00
61573;BME280;47465;43.094;12.434;2023-10-13T08:17:06;99382.19;;;18.88;100.00
61573;BME280;47465;43.094;12.434;2023-10-13T08:19:36;99426.03;;;19.26;100.00
61573;BME280;47465;43.094;12.434;2023-10-13T08:22:07;99446.97;;;19.56;100.00
61573;BME280;47465;43.094;12.434;2023-10-13T08:24:50;99427.56;;;19.65;100.00
61573;BME280;47465;43.094;12.434;2023-10-13T08:27:35;99401.97;;;19.57;100.00
61573;BME280;47465;43.094;12.434;2023-10-13T08:30:12;99435.19;;;19.57;100.00
61573;BME280;47465;43.094;12.434;2023-10-13T08:33:12;99424.34;;;19.59;100.00
61573;BME280;47465;43.094;12.434;2023-10-13T08:35:50;99434.94;;;19.79;100.00
61573;BME280;47465;43.094;12.434;2023-10-13T08:38:50;99441.78;;;19.86;97.78
61573;BME280;47465;43.094;12.434;2023-10-13T08:41:16;99415.97;;;19.47;98.81
61573;BME280;47465;43.094;12.434;2023-10-13T08:44:03;99458.28;;;19.63;100.00
61573;BME280;47465;43.094;12.434;2023-10-13T08:46:30;99443.22;;;19.59;99.81
61573;BME280;47465;43.094;12.434;2023-10-13T08:49:05;99437.81;;;19.59;100.00
61573;BME280;47465;43.094;12.434;2023-10-13T08:51:40;99428.88;;;19.58;97.61
61573;BME280;47465;43.094;12.434;2023-10-13T08:54:14;99432.19;;;19.81;97.13
61573;BME280;47465;43.094;12.434;2023-10-13T08:57:13;99460.56;;;20.21;94.66
61573;BME280;47465;43.094;12.434;2023-10-13T09:00:13;99440.06;;;20.33;91.74
61573;BME280;47465;43.094;12.434;2023-10-13T09:03:14;99416.03;;;20.44;90.90
61573;BME280;47465;43.094;12.434;2023-10-13T09:06:23;99435.03;;;20.75;88.86
61573;BME280;47465;43.094;12.434;2023-10-13T09:08:51;99444.16;;;21.04;88.42
61573;BME280;47465;43.094;12.434;2023-10-13T09:12:12;99432.78;;;21.13;86.96
61573;BME280;47465;43.094;12.434;2023-10-13T09:14:39;99450.34;;;21.20;86.47
61573;BME280;47465;43.094;12.434;2023-10-13T09:17:10;99407.09;;;20.90;87.61
61573;BME280;47465;43.094;12.434;2023-10-13T09:19:48;99423.16;;;21.23;86.14
61573;BME280;47465;43.094;12.434;2023-10-13T09:22:21;99398.88;;;21.22;86.68
61573;BME280;47465;43.094;12.434;2023-10-13T09:25:22;99435.88;;;21.66;86.10
61573;BME280;47465;43.094;12.434;2023-10-13T09:27:48;99413.94;;;21.70;85.62
61573;BME280;47465;43.094;12.434;2023-10-13T09:30:17;99416.19;;;21.33;85.17
61573;BME280;47465;43.094;12.434;2023-10-13T09:32:46;99424.00;;;21.68;84.80
61573;BME280;47465;43.094;12.434;2023-10-13T09:35:17;99405.34;;;21.78;83.55
61573;BME280;47465;43.094;12.434;2023-10-13T09:37:45;99394.91;;;21.86;83.30
61573;BME280;47465;43.094;12.434;2023-10-13T09:40:16;99413.16;;;22.11;82.43
61573;BME280;47465;43.094;12.434;2023-10-13T09:43:20;99408.91;;;22.07;84.32
61573;BME280;47465;43.094;12.434;2023-10-13T09:45:47;99387.44;;;22.04;84.59
61573;BME280;47465;43.094;12.434;2023-10-13T09:48:47;99407.84;;;22.24;82.59
61573;BME280;47465;43.094;12.434;2023-10-13T09:51:18;99387.63;;;22.15;81.65
61573;BME280;47465;43.094;12.434;2023-10-13T09:53:50;99396.38;;;21.78;83.32
61573;BME280;47465;43.094;12.434;2023-10-13T09:56:21;99423.34;;;22.22;82.59
61573;BME280;47465;43.094;12.434;2023-10-13T09:58:55;99407.06;;;22.37;79.97
61573;BME280;47465;43.094;12.434;2023-10-13T10:01:28;99412.25;;;22.54;79.68
61573;BME280;47465;43.094;12.434;2023-10-13T10:04:08;99416.97;;;22.50;81.31
61573;BME280;47465;43.094;12.434;2023-10-13T10:06:35;99405.75;;;22.56;80.73
61573;BME280;47465;43.094;12.434;2023-10-13T10:09:35;99398.94;;;22.64;79.74
61573;BME280;47465;43.094;12.434;2023-10-13T10:12:21;99404.84;;;22.83;77.89
61573;BME280;47465;43.094;12.434;2023-10-13T10:15:04;99399.69;;;22.93;78.60
61573;BME280;47465;43.094;12.434;2023-10-13T10:17:38;99405.94;;;23.08;76.93
61573;BME280;47465;43.094;12.434;2023-10-13T10:20:06;99383.00;;;22.99;76.07
61573;BME280;47465;43.094;12.434;2023-10-13T10:22:37;99377.38;;;23.02;76.27
61573;BME280;47465;43.094;12.434;2023-10-13T10:25:11;99391.28;;;23.10;75.70
61573;BME280;47465;43.094;12.434;2023-10-13T10:27:58;99356.72;;;22.87;75.52
61573;BME280;47465;43.094;12.434;2023-10-13T10:30:24;99362.34;;;22.96;75.62
61573;BME280;47465;43.094;12.434;2023-10-13T10:32:54;99367.16;;;22.93;75.32
61573;BME280;47465;43.094;12.434;2023-10-13T10:35:25;99381.47;;;22.95;74.47
61573;BME280;47465;43.094;12.434;2023-10-13T10:37:56;99366.91;;;22.96;74.25
61573;BME280;47465;43.094;12.434;2023-10-13T10:40:30;99320.47;;;22.75;72.71
61573;BME280;47465;43.094;12.434;2023-10-13T10:43:08;99360.41;;;22.98;71.07
61573;BME280;47465;43.094;12.434;2023-10-13T10:45:35;99339.16;;;22.92;69.73
61573;BME280;47465;43.094;12.434;2023-10-13T10:48:01;99347.44;;;23.04;65.97
61573;BME280;47465;43.094;12.434;2023-10-13T10:50:42;99348.47;;;22.88;67.98
61573;BME280;47465;43.094;12.434;2023-10-13T10:53:09;99339.91;;;22.82;68.29
61573;BME280;47465;43.094;12.434;2023-10-13T10:55:36;99388.25;;;23.15;65.99
61573;BME280;47465;43.094;12.434;2023-10-13T10:58:03;99379.59;;;23.23;66.69
61573;BME280;47465;43.094;12.434;2023-10-13T11:00:32;99365.25;;;23.08;67.65
61573;BME280;47465;43.094;12.434;2023-10-13T11:03:31;99335.41;;;23.08;67.90
61573;BME280;47465;43.094;12.434;2023-10-13T11:06:03;99347.78;;;23.25;68.47
61573;BME280;47465;43.094;12.434;2023-10-13T11:08:30;99300.78;;;23.11;66.25
61573;BME280;47465;43.094;12.434;2023-10-13T11:10:57;99330.63;;;23.24;65.17
61573;BME280;47465;43.094;12.434;2023-10-13T11:13:23;99301.44;;;23.28;64.89
61573;BME280;47465;43.094;12.434;2023-10-13T11:15:50;99356.59;;;23.54;64.21
61573;BME280;47465;43.094;12.434;2023-10-13T11:18:16;99336.63;;;23.42;63.36
61573;BME280;47465;43.094;12.434;2023-10-13T11:20:48;99286.59;;;23.21;63.53
61573;BME280;47465;43.094;12.434;2023-10-13T11:23:21;99307.06;;;23.50;61.59
61573;BME280;47465;43.094;12.434;2023-10-13T11:25:56;99287.78;;;23.42;59.70
61573;BME280;47465;43.094;12.434;2023-10-13T11:28:24;99287.09;;;23.51;59.19
61573;BME280;47465;43.094;12.434;2023-10-13T11:30:53;99337.78;;;23.89;58.36
61573;BME280;47465;43.094;12.434;2023-10-13T11:33:24;99310.19;;;23.83;57.89
61573;BME280;47465;43.094;12.434;2023-10-13T11:35:55;99333.94;;;24.05;57.60
61573;BME280;47465;43.094;12.434;2023-10-13T11:38:22;99253.31;;;23.68;58.11
61573;BME280;47465;43.094;12.434;2023-10-13T11:40:57;99258.59;;;23.83;56.46
61573;BME280;47465;43.094;12.434;2023-10-13T11:43:52;99324.19;;;24.26;56.97
61573;BME280;47465;43.094;12.434;2023-10-13T11:46:32;99279.59;;;24.05;55.65
61573;BME280;47465;43.094;12.434;2023-10-13T12:04:51;99286.53;;;24.57;52.73
61573;BME280;47465;43.094;12.434;2023-10-13T12:15:07;99284.03;;;24.78;51.24
61573;BME280;47465;43.094;12.434;2023-10-13T12:18:11;99207.88;;;24.43;50.77
61573;BME280;47465;43.094;12.434;2023-10-13T12:21:08;99276.28;;;24.96;50.59
61573;BME280;47465;43.094;12.434;2023-10-13T12:23:34;99229.66;;;24.89;49.70
61573;BME280;47465;43.094;12.434;2023-10-13T12:26:02;99243.16;;;25.02;49.49
61573;BME280;47465;43.094;12.434;2023-10-13T12:28:32;99184.25;;;24.67;49.26
61573;BME280;47465;43.094;12.434;2023-10-13T12:31:03;99255.34;;;25.20;49.27
61573;BME280;47465;43.094;12.434;2023-10-13T12:33:32;99214.97;;;25.03;48.21
61573;BME280;47465;43.094;12.434;2023-10-13T12:36:08;99259.03;;;25.31;46.19
61573;BME280;47465;43.094;12.434;2023-10-13T12:38:37;99184.03;;;24.93;45.19
61573;BME280;47465;43.094;12.434;2023-10-13T12:41:46;99192.19;;;24.82;45.00
61573;BME280;47465;43.094;12.434;2023-10-13T12:44:46;99192.06;;;25.17;46.23
61573;BME280;47465;43.094;12.434;2023-10-13T12:47:49;99233.66;;;25.41;46.58
61573;BME280;47465;43.094;12.434;2023-10-13T12:50:50;99204.06;;;25.14;47.03
61573;BME280;47465;43.094;12.434;2023-10-13T12:53:33;99219.94;;;25.32;46.73
61573;BME280;47465;43.094;12.434;2023-10-13T12:55:59;99201.53;;;25.35;46.34
61573;BME280;47465;43.094;12.434;2023-10-13T12:58:24;99178.00;;;25.23;46.40
61573;BME280;47465;43.094;12.434;2023-10-13T13:00:52;99213.16;;;25.37;46.70
61573;BME280;47465;43.094;12.434;2023-10-13T13:03:27;99184.78;;;25.17;46.81
61573;BME280;47465;43.094;12.434;2023-10-13T13:05:56;99223.66;;;25.42;47.27
61573;BME280;47465;43.094;12.434;2023-10-13T13:08:22;99184.66;;;25.19;46.43
61573;BME280;47465;43.094;12.434;2023-10-13T13:10:48;99147.28;;;24.87;46.41
61573;BME280;47465;43.094;12.434;2023-10-13T13:13:14;99222.19;;;25.27;47.54
61573;BME280;47465;43.094;12.434;2023-10-13T13:15:42;99194.69;;;25.18;47.44
61573;BME280;47465;43.094;12.434;2023-10-13T13:18:11;99207.56;;;25.28;47.67
61573;BME280;47465;43.094;12.434;2023-10-13T13:20:38;99208.19;;;25.31;46.86
61573;BME280;47465;43.094;12.434;2023-10-13T13:23:06;99211.41;;;25.36;47.52
61573;BME280;47465;43.094;12.434;2023-10-13T13:25:33;99159.31;;;25.07;47.37
61573;BME280;47465;43.094;12.434;2023-10-13T13:27:59;99174.03;;;25.27;47.24
61573;BME280;47465;43.094;12.434;2023-10-13T13:30:30;99153.84;;;25.18;46.81
61573;BME280;47465;43.094;12.434;2023-10-13T13:32:59;99195.06;;;25.48;47.52
61573;BME280;47465;43.094;12.434;2023-10-13T13:35:30;99180.59;;;25.36;48.01
61573;BME280;47465;43.094;12.434;2023-10-13T13:38:00;99179.09;;;25.43;47.21
61573;BME280;47465;43.094;12.434;2023-10-13T13:40:38;99169.94;;;25.44;47.17
61573;BME280;47465;43.094;12.434;2023-10-13T13:43:04;99184.50;;;25.54;47.18
61573;BME280;47465;43.094;12.434;2023-10-13T13:45:30;99158.06;;;25.34;46.45
61573;BME280;47465;43.094;12.434;2023-10-13T13:47:58;99163.47;;;25.56;46.42
61573;BME280;47465;43.094;12.434;2023-10-13T13:50:25;99120.72;;;25.36;46.71
61573;BME280;47465;43.094;12.434;2023-10-13T13:52:54;99119.34;;;25.30;46.40
61573;BME280;47465;43.094;12.434;2023-10-13T13:55:22;99112.31;;;25.28;46.70
61573;BME280;47465;43.094;12.434;2023-10-13T13:57:50;99155.81;;;25.50;47.39
61573;BME280;47465;43.094;12.434;2023-10-13T14:00:17;99167.69;;;25.60;47.58
61573;BME280;47465;43.094;12.434;2023-10-13T14:02:46;99156.78;;;25.60;47.29
61573;BME280;47465;43.094;12.434;2023-10-13T14:05:13;99153.47;;;25.57;46.83
61573;BME280;47465;43.094;12.434;2023-10-13T14:07:41;99133.44;;;25.47;46.58